Time;durP1;ratioP1;P1;durP2;ratioP2;P2;SDS_P1;SDS_P2;PMS_P1;PMS_P2;Temp;Humidity;BMP_temperature;BMP_pressure;BME280_temperature;BME280_humidity;BME280_pressure;Samples;Min_cycle;Max_cycle;Signal;HPM_P1;HPM_P2
2021/09/16 00:00:11;;;;;;;6.20;4.40;;;17.10;99.90;;;;;;4989773;28;20247;-62
2021/09/16 00:02:41;;;;;;;10.53;4.80;;;17.00;99.90;;;;;;4987589;28;20237;-63
2021/09/16 00:05:10;;;;;;;9.03;4.63;;;17.00;99.90;;;;;;4990688;28;20266;-63
2021/09/16 00:07:38;;;;;;;8.80;5.53;;;17.00;99.90;;;;;;4997534;28;20601;-62
2021/09/16 00:10:08;;;;;;;10.13;4.87;;;17.00;99.90;;;;;;4997768;28;20252;-63
2021/09/16 00:12:36;;;;;;;9.53;4.63;;;17.00;99.90;;;;;;4989907;28;20250;-63
2021/09/16 00:15:05;;;;;;;9.23;4.43;;;17.00;99.90;;;;;;4991673;28;20257;-61
2021/09/16 00:17:33;;;;;;;8.93;4.97;;;17.00;99.90;;;;;;4991441;28;20303;-63
2021/09/16 00:20:05;;;;;;;11.20;5.03;;;16.90;99.90;;;;;;4996926;28;20316;-62
2021/09/16 00:22:34;;;;;;;9.40;5.00;;;16.90;99.90;;;;;;4989112;28;20239;-62
2021/09/16 00:25:02;;;;;;;7.63;4.40;;;16.90;99.90;;;;;;4988996;28;20233;-62
2021/09/16 00:27:30;;;;;;;8.53;5.03;;;16.80;99.90;;;;;;4989710;28;20288;-62
2021/09/16 00:29:59;;;;;;;7.27;4.17;;;16.90;99.90;;;;;;4995498;28;20249;-62
2021/09/16 00:32:27;;;;;;;7.47;4.70;;;16.90;99.90;;;;;;4987394;28;20308;-63
2021/09/16 00:34:55;;;;;;;10.63;4.57;;;16.90;99.90;;;;;;4996264;28;20243;-62
2021/09/16 00:37:25;;;;;;;9.07;4.87;;;16.80;99.90;;;;;;4987291;28;20269;-63
2021/09/16 00:39:53;;;;;;;9.63;4.30;;;16.80;99.90;;;;;;4993102;28;20598;-62
2021/09/16 00:42:21;;;;;;;6.43;4.27;;;16.70;99.90;;;;;;4995315;28;20633;-63
2021/09/16 00:44:49;;;;;;;4.77;3.83;;;16.70;99.90;;;;;;4999970;28;20323;-62
2021/09/16 00:47:18;;;;;;;8.77;4.07;;;16.80;99.90;;;;;;4988088;28;20233;-63
2021/09/16 00:49:46;;;;;;;6.37;3.87;;;16.80;99.90;;;;;;4993890;28;20246;-63
2021/09/16 00:52:15;;;;;;;4.70;3.03;;;16.70;99.90;;;;;;4990765;28;20243;-63
2021/09/16 00:54:47;;;;;;;7.00;3.20;;;16.70;99.90;;;;;;4991756;28;20233;-62
2021/09/16 00:57:17;;;;;;;8.83;2.80;;;16.70;99.90;;;;;;4992230;28;20710;-63
2021/09/16 00:59:46;;;;;;;5.13;2.87;;;16.70;99.90;;;;;;4986307;28;20735;-62
2021/09/16 01:02:15;;;;;;;6.63;2.60;;;16.70;99.90;;;;;;4991668;28;20299;-62
2021/09/16 01:04:43;;;;;;;8.53;2.60;;;16.60;99.90;;;;;;5000034;28;20233;-62
2021/09/16 01:07:13;;;;;;;8.00;2.40;;;16.60;99.90;;;;;;4998880;28;20291;-62
2021/09/16 01:09:44;;;;;;;5.73;2.47;;;16.60;99.90;;;;;;4992639;28;20735;-62
2021/09/16 01:12:12;;;;;;;6.90;2.00;;;16.60;99.90;;;;;;4997205;28;20256;-62
2021/09/16 01:14:41;;;;;;;5.27;1.77;;;16.60;99.90;;;;;;4992260;28;20237;-63
2021/09/16 01:17:09;;;;;;;7.70;2.03;;;16.50;99.90;;;;;;4995730;28;20322;-63
2021/09/16 01:19:37;;;;;;;6.00;1.83;;;16.60;99.90;;;;;;4992338;28;20288;-63
2021/09/16 01:22:06;;;;;;;5.03;1.80;;;16.50;99.90;;;;;;4993846;28;20243;-62
2021/09/16 01:24:36;;;;;;;5.63;2.00;;;16.50;99.90;;;;;;4993322;28;20648;-63
2021/09/16 01:27:04;;;;;;;5.17;1.80;;;16.50;99.90;;;;;;4999600;28;20235;-62
2021/09/16 01:29:32;;;;;;;5.00;1.80;;;16.50;99.90;;;;;;4999088;28;20308;-62
2021/09/16 01:32:04;;;;;;;5.23;1.87;;;16.50;99.90;;;;;;4985285;28;20268;-62
2021/09/16 01:34:32;;;;;;;4.90;1.60;;;16.40;99.90;;;;;;4987569;28;20255;-62
2021/09/16 01:37:01;;;;;;;5.73;2.00;;;16.40;99.90;;;;;;4992410;28;20710;-64
2021/09/16 01:39:29;;;;;;;4.13;1.90;;;16.50;99.90;;;;;;4988306;28;20261;-62
2021/09/16 01:41:58;;;;;;;4.17;1.90;;;16.50;99.90;;;;;;4990069;28;20234;-64
2021/09/16 01:44:27;;;;;;;5.03;1.67;;;16.40;99.90;;;;;;5001969;28;20233;-62
2021/09/16 01:46:56;;;;;;;5.13;2.07;;;16.40;99.90;;;;;;4995463;28;20241;-62
2021/09/16 01:49:24;;;;;;;3.60;1.70;;;16.40;99.90;;;;;;4996011;28;20265;-63
2021/09/16 01:51:52;;;;;;;3.87;1.80;;;16.40;99.90;;;;;;4995574;28;20229;-62
2021/09/16 01:54:21;;;;;;;4.50;1.57;;;16.40;99.90;;;;;;4994580;28;20739;-63
2021/09/16 01:56:49;;;;;;;4.90;1.20;;;16.30;99.90;;;;;;4993759;28;20233;-63
2021/09/16 01:59:22;;;;;;;6.33;2.23;;;16.30;99.90;;;;;;4989462;28;20238;-64
2021/09/16 02:01:50;;;;;;;5.83;1.47;;;16.30;99.90;;;;;;4991621;28;20304;-63
2021/09/16 02:04:18;;;;;;;6.40;1.50;;;16.30;99.90;;;;;;4993512;28;20698;-63
2021/09/16 02:06:46;;;;;;;4.00;1.50;;;16.30;99.90;;;;;;5003464;28;20882;-62
2021/09/16 02:09:15;;;;;;;9.53;1.60;;;16.20;99.90;;;;;;4998231;28;20234;-62
2021/09/16 02:11:43;;;;;;;6.97;1.63;;;16.20;99.90;;;;;;4990880;28;20238;-63
2021/09/16 02:14:11;;;;;;;3.90;1.37;;;16.20;99.90;;;;;;4995632;28;20317;-63
2021/09/16 02:16:42;;;;;;;5.10;1.67;;;16.10;99.90;;;;;;4999002;28;20241;-62
2021/09/16 02:19:10;;;;;;;4.90;1.50;;;16.10;99.90;;;;;;4997086;28;20324;-62
2021/09/16 02:21:38;;;;;;;3.53;1.53;;;16.10;99.90;;;;;;4989945;28;20238;-63
2021/09/16 02:24:07;;;;;;;7.37;1.50;;;16.10;99.90;;;;;;4997065;28;20349;-62
2021/09/16 02:26:35;;;;;;;4.00;1.23;;;16.00;99.90;;;;;;4997329;28;20570;-62
2021/09/16 02:29:03;;;;;;;5.53;1.40;;;16.00;99.90;;;;;;4998183;28;20287;-63
2021/09/16 02:31:31;;;;;;;3.33;1.07;;;15.90;99.90;;;;;;4984986;28;20233;-62
2021/09/16 02:34:01;;;;;;;4.67;1.40;;;15.90;99.90;;;;;;4992158;28;20328;-63
2021/09/16 02:36:29;;;;;;;4.67;1.40;;;15.90;99.90;;;;;;4996079;28;20237;-63
2021/09/16 02:38:57;;;;;;;3.37;1.40;;;15.90;99.90;;;;;;5001555;28;20299;-62
2021/09/16 02:41:27;;;;;;;3.40;1.60;;;15.90;99.90;;;;;;4991239;28;20584;-62
2021/09/16 02:43:55;;;;;;;3.30;1.13;;;15.80;99.90;;;;;;4999409;28;20775;-62
2021/09/16 02:46:23;;;;;;;3.50;1.20;;;15.80;99.90;;;;;;4997350;28;20325;-62
2021/09/16 02:48:52;;;;;;;3.80;1.00;;;15.80;99.90;;;;;;4991709;28;20238;-62
2021/09/16 02:51:21;;;;;;;5.33;1.40;;;15.70;99.90;;;;;;4994829;28;20244;-63
2021/09/16 02:53:49;;;;;;;4.67;1.20;;;15.80;99.90;;;;;;4993907;28;20322;-62
2021/09/16 02:56:18;;;;;;;5.03;1.60;;;15.80;99.90;;;;;;4995830;28;20237;-62
2021/09/16 02:58:46;;;;;;;5.23;1.47;;;15.80;99.90;;;;;;4995863;28;20308;-63
2021/09/16 03:01:14;;;;;;;5.57;1.20;;;15.70;99.90;;;;;;4992269;28;20234;-63
2021/09/16 03:03:42;;;;;;;4.30;1.30;;;15.70;99.90;;;;;;4984441;28;20779;-63
2021/09/16 03:06:10;;;;;;;6.37;1.43;;;15.70;99.90;;;;;;4994723;28;20234;-62
2021/09/16 03:08:39;;;;;;;4.63;1.10;;;15.70;99.90;;;;;;4997399;28;20265;-62
2021/09/16 03:11:08;;;;;;;3.20;1.10;;;15.70;99.90;;;;;;4998680;28;20498;-62
2021/09/16 03:13:36;;;;;;;3.30;1.10;;;15.60;99.90;;;;;;4990296;28;20656;-63
2021/09/16 03:16:04;;;;;;;4.23;1.30;;;15.60;99.90;;;;;;4995290;28;20716;-62
2021/09/16 03:18:32;;;;;;;3.37;1.17;;;15.60;99.90;;;;;;4989868;28;20248;-63
2021/09/16 03:21:00;;;;;;;5.90;1.27;;;15.60;99.90;;;;;;4997823;28;20700;-63
2021/09/16 03:23:29;;;;;;;2.83;1.10;;;15.70;99.90;;;;;;4990778;28;20584;-63
2021/09/16 03:25:58;;;;;;;3.33;0.97;;;15.60;99.90;;;;;;4996177;28;20237;-62
2021/09/16 03:28:26;;;;;;;4.20;1.10;;;15.60;99.90;;;;;;4988081;28;20229;-63
2021/09/16 03:30:54;;;;;;;7.30;1.20;;;15.60;99.90;;;;;;4987623;28;20253;-63
2021/09/16 03:33:22;;;;;;;5.37;1.40;;;15.60;99.90;;;;;;4995051;28;20241;-62
2021/09/16 03:35:50;;;;;;;5.40;1.13;;;15.50;99.90;;;;;;4990225;28;20736;-62
2021/09/16 03:38:18;;;;;;;4.63;1.30;;;15.50;99.90;;;;;;4991798;28;20327;-63
2021/09/16 03:40:46;;;;;;;3.23;1.07;;;15.50;99.90;;;;;;4993329;28;20238;-63
2021/09/16 03:43:16;;;;;;;3.00;1.00;;;15.50;99.90;;;;;;4991102;28;20417;-63
2021/09/16 03:45:44;;;;;;;7.10;1.30;;;15.50;99.90;;;;;;4999003;28;20327;-62
2021/09/16 03:48:12;;;;;;;4.23;1.20;;;15.30;99.90;;;;;;4993858;28;20753;-63
2021/09/16 03:50:41;;;;;;;3.50;1.00;;;15.30;99.90;;;;;;4994680;28;20742;-63
2021/09/16 03:53:09;;;;;;;5.03;1.10;;;15.30;99.90;;;;;;4996761;28;20233;-62
2021/09/16 03:55:37;;;;;;;2.27;1.00;;;15.30;99.90;;;;;;4989407;28;20249;-63
2021/09/16 03:58:05;;;;;;;3.50;1.10;;;15.30;99.90;;;;;;4984785;28;20234;-63
2021/09/16 04:00:35;;;;;;;3.67;1.20;;;15.30;99.90;;;;;;4988231;28;20542;-62
2021/09/16 04:03:07;;;;;;;4.97;0.90;;;15.30;99.90;;;;;;4992755;28;20638;-63
2021/09/16 04:05:36;;;;;;;3.33;1.20;;;15.30;99.90;;;;;;4995950;28;20717;-63
2021/09/16 04:08:04;;;;;;;4.13;1.30;;;15.20;99.90;;;;;;4986842;28;20705;-62
2021/09/16 04:10:32;;;;;;;6.30;1.50;;;15.20;99.90;;;;;;4994818;28;20736;-62
2021/09/16 04:13:01;;;;;;;4.70;1.20;;;15.20;99.90;;;;;;4986961;28;20877;-63
2021/09/16 04:15:29;;;;;;;5.23;1.20;;;15.20;99.90;;;;;;4980462;28;20226;-63
2021/09/16 04:17:59;;;;;;;5.80;1.23;;;15.20;99.90;;;;;;4985652;28;20537;-63
2021/09/16 04:20:27;;;;;;;3.10;1.73;;;15.20;99.90;;;;;;4988948;28;20233;-63
2021/09/16 04:22:55;;;;;;;7.13;1.17;;;15.20;99.90;;;;;;4989268;28;20668;-63
2021/09/16 04:25:23;;;;;;;4.47;1.43;;;15.20;99.90;;;;;;4987793;28;20252;-62
2021/09/16 04:27:51;;;;;;;6.73;1.60;;;15.20;99.90;;;;;;4989218;28;20276;-64
2021/09/16 04:30:19;;;;;;;4.77;1.40;;;15.20;99.90;;;;;;4991743;28;20238;-63
2021/09/16 04:32:47;;;;;;;4.47;1.30;;;15.20;99.90;;;;;;4991605;28;20686;-63
2021/09/16 04:35:17;;;;;;;5.63;1.30;;;15.20;99.90;;;;;;4992760;28;20237;-64
2021/09/16 04:37:45;;;;;;;7.50;1.40;;;15.10;99.90;;;;;;4986684;28;20253;-63
2021/09/16 04:40:13;;;;;;;4.80;1.50;;;15.10;99.90;;;;;;4990395;28;20251;-62
2021/09/16 04:42:41;;;;;;;7.33;2.00;;;15.10;99.90;;;;;;4983682;28;20266;-63
2021/09/16 04:45:10;;;;;;;9.57;2.00;;;15.10;99.90;;;;;;4994170;28;20592;-62
2021/09/16 04:47:40;;;;;;;5.63;1.57;;;15.10;99.90;;;;;;4987919;28;20261;-62
2021/09/16 04:50:10;;;;;;;7.57;1.60;;;15.10;99.90;;;;;;4980784;28;20324;-63
2021/09/16 04:52:39;;;;;;;6.13;1.77;;;15.10;99.90;;;;;;4980650;28;20757;-62
2021/09/16 04:55:08;;;;;;;6.73;1.63;;;15.10;99.90;;;;;;4987033;28;20593;-63
2021/09/16 04:57:39;;;;;;;6.53;1.60;;;15.10;99.90;;;;;;4991748;28;20693;-63
2021/09/16 05:00:08;;;;;;;6.53;1.73;;;15.10;99.90;;;;;;4988417;28;20255;-62
2021/09/16 05:02:36;;;;;;;4.17;1.60;;;15.10;99.90;;;;;;4993512;28;20644;-63
2021/09/16 05:05:05;;;;;;;5.57;1.73;;;15.10;99.90;;;;;;4988004;28;20655;-64
2021/09/16 05:07:33;;;;;;;5.90;2.33;;;15.10;99.90;;;;;;4986447;28;20402;-62
2021/09/16 05:10:04;;;;;;;5.77;2.27;;;15.10;99.90;;;;;;4995973;28;20616;-62
2021/09/16 05:12:33;;;;;;;8.00;2.40;;;15.10;99.90;;;;;;4989265;28;20240;-64
2021/09/16 05:15:01;;;;;;;8.30;2.33;;;15.00;99.90;;;;;;4991090;28;20237;-63
2021/09/16 05:17:29;;;;;;;5.67;2.10;;;15.10;99.90;;;;;;4990040;28;20706;-63
2021/09/16 05:19:58;;;;;;;4.17;2.10;;;15.10;99.90;;;;;;4986845;28;20767;-62
2021/09/16 05:22:27;;;;;;;5.97;2.50;;;15.10;99.90;;;;;;4987055;28;20674;-63
2021/09/16 05:24:55;;;;;;;9.70;2.60;;;15.10;99.90;;;;;;4996609;28;20241;-64
2021/09/16 05:27:24;;;;;;;6.33;2.77;;;15.10;99.90;;;;;;4990547;28;20583;-64
2021/09/16 05:29:53;;;;;;;6.93;2.50;;;15.10;99.90;;;;;;4979310;28;20272;-63
2021/09/16 05:32:21;;;;;;;7.47;3.00;;;15.10;99.90;;;;;;4986954;28;20351;-62
2021/09/16 05:34:49;;;;;;;6.00;2.87;;;15.10;99.90;;;;;;4999809;28;20243;-63
2021/09/16 05:37:17;;;;;;;8.43;3.23;;;15.10;99.90;;;;;;4985653;28;20292;-64
2021/09/16 05:39:45;;;;;;;7.97;2.60;;;15.10;99.90;;;;;;4986159;28;20249;-63
2021/09/16 05:42:13;;;;;;;5.57;3.23;;;15.10;99.90;;;;;;4993083;28;20322;-62
2021/09/16 05:44:42;;;;;;;5.43;2.87;;;15.20;99.90;;;;;;4991506;28;20241;-62
2021/09/16 05:47:10;;;;;;;7.27;2.87;;;15.20;99.90;;;;;;4986946;28;20265;-63
2021/09/16 05:49:38;;;;;;;8.03;3.07;;;15.20;99.90;;;;;;4981010;28;20245;-63
2021/09/16 05:52:07;;;;;;;7.17;3.10;;;15.20;99.90;;;;;;4984267;28;20230;-63
2021/09/16 05:54:35;;;;;;;7.83;3.23;;;15.20;99.90;;;;;;4987550;28;20305;-63
2021/09/16 05:57:03;;;;;;;5.93;3.20;;;15.20;99.90;;;;;;4986866;28;20248;-63
2021/09/16 05:59:32;;;;;;;7.27;3.17;;;15.20;99.90;;;;;;4988250;28;20874;-63
2021/09/16 06:02:01;;;;;;;8.23;3.50;;;15.20;99.90;;;;;;4991989;28;20660;-63
2021/09/16 06:04:30;;;;;;;9.67;3.50;;;15.20;99.90;;;;;;4991629;28;20233;-62
2021/09/16 06:07:03;;;;;;;9.50;4.03;;;15.30;99.90;;;;;;4990849;28;20268;-62
2021/09/16 06:09:32;;;;;;;7.97;4.03;;;15.30;99.90;;;;;;4994803;28;20787;-62
2021/09/16 06:12:02;;;;;;;8.80;3.77;;;15.20;99.90;;;;;;4993360;28;20337;-62
2021/09/16 06:14:31;;;;;;;9.53;4.43;;;15.20;99.90;;;;;;4984890;28;20238;-63
2021/09/16 06:17:00;;;;;;;8.50;3.77;;;15.30;99.90;;;;;;4985868;28;20324;-63
2021/09/16 06:19:29;;;;;;;5.37;3.57;;;15.30;99.90;;;;;;4985229;28;20241;-63
2021/09/16 06:21:57;;;;;;;8.90;3.80;;;15.30;99.90;;;;;;4989881;28;20238;-63
2021/09/16 06:24:25;;;;;;;10.67;3.70;;;15.40;99.90;;;;;;4991298;28;20312;-62
2021/09/16 06:26:53;;;;;;;5.20;3.63;;;15.40;99.90;;;;;;5000060;28;20638;-63
2021/09/16 06:29:21;;;;;;;8.77;3.90;;;15.40;99.90;;;;;;4993074;28;20229;-63
2021/09/16 06:31:49;;;;;;;7.73;3.70;;;15.40;99.90;;;;;;4991927;28;20309;-63
2021/09/16 06:34:19;;;;;;;10.03;3.87;;;15.50;99.90;;;;;;4985225;28;20238;-64
2021/09/16 06:36:47;;;;;;;9.70;3.93;;;15.50;99.90;;;;;;4989475;28;20265;-64
2021/09/16 06:39:15;;;;;;;7.67;4.10;;;15.50;99.90;;;;;;4990892;28;20233;-63
2021/09/16 06:41:44;;;;;;;6.90;4.23;;;15.60;99.90;;;;;;4999672;28;20295;-63
2021/09/16 06:44:12;;;;;;;6.20;3.77;;;15.60;99.90;;;;;;4991542;28;20345;-62
2021/09/16 06:46:40;;;;;;;7.83;4.27;;;15.60;99.90;;;;;;4988059;28;20234;-63
2021/09/16 06:49:09;;;;;;;9.17;4.17;;;15.50;99.90;;;;;;4996536;28;20328;-63
2021/09/16 06:51:38;;;;;;;7.90;4.37;;;15.60;99.90;;;;;;4985271;28;20312;-63
2021/09/16 06:54:06;;;;;;;7.33;4.13;;;15.70;99.90;;;;;;4986750;28;20781;-63
2021/09/16 06:56:35;;;;;;;8.87;4.80;;;15.70;99.90;;;;;;4991668;28;20242;-63
2021/09/16 06:59:03;;;;;;;7.70;4.40;;;15.70;99.90;;;;;;4993614;28;20234;-64
2021/09/16 07:01:32;;;;;;;6.53;4.17;;;15.80;99.90;;;;;;4993027;28;20245;-63
2021/09/16 07:04:00;;;;;;;8.30;4.60;;;15.80;99.90;;;;;;4996933;28;20237;-63
2021/09/16 07:06:38;;;;;;;7.33;4.60;;;15.90;99.90;;;;;;4983142;28;20499;-62
2021/09/16 07:09:06;;;;;;;7.10;4.17;;;15.90;99.90;;;;;;4988821;28;20743;-63
2021/09/16 07:11:35;;;;;;;8.17;4.60;;;15.90;99.90;;;;;;4998038;28;20579;-63
2021/09/16 07:14:03;;;;;;;9.10;4.07;;;15.90;99.90;;;;;;4988729;28;20242;-64
2021/09/16 07:16:31;;;;;;;8.07;4.00;;;16.00;99.90;;;;;;4990015;28;20231;-62
2021/09/16 07:19:00;;;;;;;9.63;4.40;;;16.10;99.90;;;;;;4993655;28;20849;-62
2021/09/16 07:21:28;;;;;;;6.43;4.00;;;16.10;99.90;;;;;;4998571;28;20593;-63
2021/09/16 07:23:57;;;;;;;7.77;4.10;;;16.20;99.90;;;;;;4998561;28;20329;-64
2021/09/16 07:26:26;;;;;;;12.83;4.27;;;16.20;99.90;;;;;;4988468;28;20322;-63
2021/09/16 07:28:59;;;;;;;8.63;4.00;;;16.20;99.90;;;;;;4994714;28;20788;-63
2021/09/16 07:31:28;;;;;;;8.17;4.23;;;16.20;99.90;;;;;;4979320;28;20736;-64
2021/09/16 07:33:57;;;;;;;9.00;4.00;;;16.30;99.90;;;;;;4985538;28;20391;-64
2021/09/16 07:36:25;;;;;;;6.13;3.50;;;16.30;99.90;;;;;;4993622;28;20597;-63
2021/09/16 07:38:53;;;;;;;7.53;3.70;;;16.30;99.90;;;;;;4986917;28;20761;-63
2021/09/16 07:41:23;;;;;;;7.53;4.33;;;16.40;99.90;;;;;;4988090;28;20324;-63
2021/09/16 07:43:51;;;;;;;11.97;3.93;;;16.50;99.90;;;;;;4985193;28;20710;-62
2021/09/16 07:46:19;;;;;;;9.03;4.90;;;16.60;99.90;;;;;;4986530;28;20301;-64
2021/09/16 07:48:47;;;;;;;6.77;3.70;;;16.70;99.90;;;;;;4991705;28;20876;-62
2021/09/16 07:51:15;;;;;;;7.37;3.90;;;16.80;99.90;;;;;;4976555;28;20238;-64
2021/09/16 07:53:43;;;;;;;7.80;3.80;;;16.90;99.90;;;;;;4979475;28;20280;-63
2021/09/16 07:56:12;;;;;;;8.43;4.07;;;16.90;99.90;;;;;;4982949;28;20242;-63
2021/09/16 07:58:42;;;;;;;6.43;3.70;;;16.80;99.90;;;;;;4988178;28;20324;-63
2021/09/16 08:01:11;;;;;;;9.37;3.63;;;16.70;99.90;;;;;;4996622;28;20299;-63
2021/09/16 08:03:39;;;;;;;6.20;3.60;;;16.60;99.90;;;;;;4987112;28;20238;-63
2021/09/16 08:06:09;;;;;;;6.67;3.37;;;16.50;99.90;;;;;;4987776;28;20237;-63
2021/09/16 08:08:37;;;;;;;6.37;3.30;;;16.50;99.90;;;;;;4992488;28;20818;-62
2021/09/16 08:11:05;;;;;;;4.53;3.10;;;16.50;99.90;;;;;;4994968;28;20719;-62
2021/09/16 08:13:33;;;;;;;6.60;3.40;;;16.50;99.90;;;;;;4987251;28;20272;-63
2021/09/16 08:16:02;;;;;;;5.13;3.43;;;16.60;99.90;;;;;;4986337;28;20324;-63
2021/09/16 08:18:31;;;;;;;4.30;2.70;;;16.70;99.90;;;;;;4988944;28;20261;-63
2021/09/16 08:20:59;;;;;;;4.40;2.67;;;16.80;99.90;;;;;;4990260;28;20502;-62
2021/09/16 08:23:27;;;;;;;4.03;2.43;;;17.00;99.90;;;;;;4991803;28;20296;-62
2021/09/16 08:25:55;;;;;;;6.80;2.77;;;17.20;99.90;;;;;;4989631;28;20633;-63
2021/09/16 08:28:23;;;;;;;5.00;2.73;;;17.40;99.90;;;;;;4988323;28;20239;-63
2021/09/16 08:30:53;;;;;;;6.40;2.87;;;17.50;99.90;;;;;;4991918;28;20260;-62
2021/09/16 08:33:22;;;;;;;5.40;2.40;;;17.60;99.90;;;;;;4979283;28;20239;-63
2021/09/16 08:35:51;;;;;;;7.00;2.47;;;17.70;99.90;;;;;;4995029;28;20328;-63
2021/09/16 08:38:19;;;;;;;5.57;2.93;;;17.80;99.90;;;;;;4998969;28;20241;-63
2021/09/16 08:40:47;;;;;;;6.37;2.97;;;17.80;99.90;;;;;;4991475;28;20403;-64
2021/09/16 08:43:19;;;;;;;6.50;3.10;;;17.80;99.90;;;;;;4985710;28;20234;-63
2021/09/16 08:45:48;;;;;;;6.00;3.27;;;17.90;99.90;;;;;;4984659;28;20261;-64
2021/09/16 08:48:16;;;;;;;5.23;3.20;;;18.00;99.90;;;;;;4986564;28;20242;-63
2021/09/16 08:50:46;;;;;;;5.40;3.07;;;18.20;99.90;;;;;;4989493;28;20257;-64
2021/09/16 08:53:17;;;;;;;8.73;3.30;;;18.30;99.90;;;;;;4984389;28;20328;-62
2021/09/16 08:55:46;;;;;;;6.57;3.27;;;18.30;99.90;;;;;;4992966;28;20253;-64
2021/09/16 08:58:15;;;;;;;7.83;3.20;;;18.40;99.90;;;;;;4990415;28;20724;-63
2021/09/16 09:00:43;;;;;;;5.80;2.80;;;18.40;99.90;;;;;;4987217;28;20752;-62
2021/09/16 09:03:12;;;;;;;7.03;3.07;;;18.50;99.90;;;;;;4993488;28;20291;-63
2021/09/16 09:05:41;;;;;;;5.47;2.83;;;18.60;99.90;;;;;;4987030;28;20290;-63
2021/09/16 09:08:12;;;;;;;4.03;2.73;;;18.80;99.90;;;;;;4992039;28;20259;-63
2021/09/16 09:10:43;;;;;;;6.87;2.93;;;18.80;99.90;;;;;;4992337;28;20250;-64
2021/09/16 09:13:15;;;;;;;6.23;2.90;;;19.00;99.90;;;;;;4980632;28;20703;-64
2021/09/16 09:15:44;;;;;;;6.83;2.90;;;19.10;99.90;;;;;;4981866;28;20246;-63
2021/09/16 09:18:14;;;;;;;5.07;2.50;;;19.20;99.90;;;;;;4985012;28;20267;-63
2021/09/16 09:20:59;;;;;;;5.23;2.87;;;19.10;99.90;;;;;;4984132;28;20333;-63
2021/09/16 09:23:31;;;;;;;5.40;2.57;;;19.00;99.90;;;;;;4990663;28;20776;-63
2021/09/16 09:26:00;;;;;;;5.47;2.50;;;18.90;99.90;;;;;;4991159;28;20587;-64
2021/09/16 09:28:32;;;;;;;8.50;2.87;;;18.90;99.90;;;;;;4988748;28;20241;-63
2021/09/16 09:31:12;;;;;;;8.07;2.90;;;19.00;99.90;;;;;;4985473;28;20755;-63
2021/09/16 09:33:40;;;;;;;5.70;2.60;;;19.20;99.90;;;;;;4985025;28;20766;-63
2021/09/16 09:36:13;;;;;;;9.17;2.50;;;19.30;99.90;;;;;;4991665;28;20243;-63
2021/09/16 09:38:51;;;;;;;8.57;2.63;;;19.40;99.90;;;;;;4990850;28;20263;-63
2021/09/16 09:41:31;;;;;;;3.47;2.10;;;19.60;99.90;;;;;;4996176;28;20243;-63
2021/09/16 09:44:08;;;;;;;7.93;2.30;;;19.80;99.90;;;;;;4993826;28;20335;-63
2021/09/16 09:46:46;;;;;;;5.00;1.97;;;19.80;99.90;;;;;;4978265;28;20237;-64
2021/09/16 09:49:16;;;;;;;3.97;2.27;;;19.80;99.90;;;;;;4976577;28;20300;-63
2021/09/16 09:51:49;;;;;;;4.40;2.00;;;19.80;99.90;;;;;;4983228;28;20248;-63
2021/09/16 09:54:26;;;;;;;4.67;2.00;;;19.60;99.90;;;;;;4983252;28;20248;-64
2021/09/16 09:57:12;;;;;;;1.90;1.60;;;19.50;99.90;;;;;;3151692;28;10001770;-63
2021/09/16 09:59:58;;;;;;;4.53;1.80;;;19.40;99.90;;;;;;3604476;28;10001283;-63
2021/09/16 10:02:28;;;;;;;3.33;1.80;;;19.40;99.90;;;;;;4977725;28;20250;-63
2021/09/16 10:04:57;;;;;;;4.43;2.00;;;19.40;99.90;;;;;;4986104;28;20255;-63
2021/09/16 10:07:34;;;;;;;5.23;2.23;;;19.50;99.90;;;;;;4982814;28;20240;-64
2021/09/16 10:10:08;;;;;;;5.00;2.13;;;19.90;99.90;;;;;;4983138;28;20243;-62
2021/09/16 10:12:38;;;;;;;4.90;2.27;;;20.30;99.90;;;;;;4976675;28;20529;-64
2021/09/16 10:15:09;;;;;;;5.33;1.70;;;20.50;99.90;;;;;;4982783;28;20241;-65
2021/09/16 10:17:38;;;;;;;5.53;1.97;;;20.50;99.90;;;;;;4976732;28;20347;-63
2021/09/16 10:20:08;;;;;;;4.93;1.80;;;20.40;99.90;;;;;;4983659;28;20276;-63
2021/09/16 10:22:38;;;;;;;4.53;2.00;;;20.30;99.90;;;;;;4973441;28;20264;-63
2021/09/16 10:25:09;;;;;;;4.87;1.70;;;20.00;99.90;;;;;;4984611;28;20310;-63
2021/09/16 10:27:40;;;;;;;3.90;1.70;;;19.70;99.90;;;;;;4980751;28;20237;-63
2021/09/16 10:30:31;;;;;;;3.60;1.70;;;19.50;99.90;;;;;;4978704;28;20296;-63
2021/09/16 10:33:03;;;;;;;4.87;1.70;;;19.30;99.90;;;;;;4975036;28;20352;-63
2021/09/16 10:35:33;;;;;;;3.07;1.60;;;19.50;99.90;;;;;;4980896;28;20422;-64
2021/09/16 10:38:21;;;;;;;2.63;1.13;;;19.80;99.90;;;;;;4973444;28;20248;-64
2021/09/16 10:41:14;;;;;;;5.33;1.43;;;20.10;99.90;;;;;;4974271;28;20251;-64
2021/09/16 10:43:43;;;;;;;2.77;1.43;;;20.10;99.90;;;;;;4972385;28;20271;-64
2021/09/16 10:46:27;;;;;;;4.83;1.50;;;19.90;99.90;;;;;;4970244;28;20248;-65
2021/09/16 10:48:56;;;;;;;3.03;1.30;;;19.90;99.90;;;;;;4974215;28;20245;-65
2021/09/16 10:51:39;;;;;;;4.10;1.20;;;20.00;99.90;;;;;;4981905;28;20244;-65
2021/09/16 10:54:40;;;;;;;2.40;1.20;;;20.00;99.90;;;;;;4983698;28;20242;-64
2021/09/16 10:57:37;;;;;;;4.83;0.93;;;20.20;99.90;;;;;;4950391;28;20244;-64
2021/09/16 11:00:17;;;;;;;7.17;1.27;;;20.10;99.90;;;;;;4952854;28;20604;-64
2021/09/16 11:03:10;;;;;;;3.10;1.03;;;20.20;99.90;;;;;;4970197;28;20900;-65
2021/09/16 11:05:43;;;;;;;3.23;0.90;;;20.40;99.90;;;;;;4976933;28;20374;-65
2021/09/16 11:08:11;;;;;;;2.53;0.90;;;20.40;99.90;;;;;;4973071;28;20747;-64
2021/09/16 11:10:58;;;;;;;3.33;0.90;;;20.30;99.90;;;;;;4975278;28;20723;-64
2021/09/16 11:13:33;;;;;;;4.43;1.20;;;20.20;99.90;;;;;;4971986;28;20255;-64
2021/09/16 11:16:02;;;;;;;3.13;1.37;;;20.10;99.90;;;;;;4979942;28;20791;-64
2021/09/16 11:18:46;;;;;;;4.40;1.40;;;20.10;99.90;;;;;;4973958;28;20583;-64
2021/09/16 11:21:15;;;;;;;2.80;0.90;;;19.90;99.90;;;;;;4974181;28;20785;-64
2021/09/16 11:23:45;;;;;;;1.60;1.20;;;19.90;99.90;;;;;;4971153;28;20248;-64
2021/09/16 11:26:16;;;;;;;4.43;1.37;;;19.80;99.90;;;;;;4972897;28;20245;-64
2021/09/16 11:28:56;;;;;;;3.30;1.37;;;19.60;99.90;;;;;;4975221;28;20241;-64
2021/09/16 11:31:24;;;;;;;4.93;1.40;;;19.50;99.90;;;;;;4980018;28;20228;-63
2021/09/16 11:34:10;;;;;;;4.83;1.30;;;19.30;99.90;;;;;;4982218;28;20248;-63
2021/09/16 11:36:53;;;;;;;2.30;1.20;;;19.20;99.90;;;;;;4982358;28;20264;-64
2021/09/16 11:39:22;;;;;;;5.63;1.47;;;19.40;99.90;;;;;;4994645;28;20536;-63
2021/09/16 11:42:08;;;;;;;6.03;1.37;;;19.70;99.90;;;;;;4987140;28;20251;-63
2021/09/16 11:45:10;;;;;;;6.27;1.47;;;20.00;99.90;;;;;;4985814;28;20667;-63
2021/09/16 11:47:42;;;;;;;7.10;1.50;;;20.30;99.90;;;;;;4976621;28;20236;-64
2021/09/16 11:50:21;;;;;;;3.90;1.40;;;20.30;99.90;;;;;;4987969;28;20247;-63
2021/09/16 11:52:53;;;;;;;4.93;1.47;;;20.20;99.90;;;;;;4994753;28;20792;-64
2021/09/16 11:55:21;;;;;;;4.23;1.30;;;20.10;99.90;;;;;;4993662;28;20321;-65
2021/09/16 11:57:54;;;;;;;5.33;1.37;;;19.90;99.90;;;;;;4990609;28;20618;-64
2021/09/16 12:00:30;;;;;;;3.80;1.37;;;19.80;99.90;;;;;;4988682;28;20237;-63
2021/09/16 12:03:01;;;;;;;4.30;1.50;;;19.80;99.90;;;;;;4995916;28;20602;-63
2021/09/16 12:05:38;;;;;;;6.93;1.40;;;19.80;99.90;;;;;;4974635;28;20269;-64
2021/09/16 12:08:08;;;;;;;4.00;1.83;;;19.80;99.90;;;;;;4975378;28;20358;-64
2021/09/16 12:10:43;;;;;;;7.90;1.50;;;19.60;99.90;;;;;;4979870;28;20279;-63
2021/09/16 12:13:14;;;;;;;6.93;1.33;;;19.30;99.90;;;;;;4974824;28;20287;-63
2021/09/16 12:15:44;;;;;;;6.40;1.73;;;19.20;99.90;;;;;;4977381;28;20748;-64
2021/09/16 12:18:13;;;;;;;3.80;1.57;;;19.40;99.90;;;;;;4978784;28;20251;-64
2021/09/16 12:20:42;;;;;;;3.83;1.40;;;19.60;99.90;;;;;;4989478;28;20439;-63
2021/09/16 12:23:12;;;;;;;5.60;1.60;;;19.80;99.90;;;;;;4987569;28;20594;-65
2021/09/16 12:25:58;;;;;;;4.03;1.17;;;19.80;99.90;;;;;;4987758;28;20756;-63
2021/09/16 12:28:28;;;;;;;3.50;1.50;;;19.90;99.90;;;;;;4983665;28;21013;-64
2021/09/16 12:31:06;;;;;;;4.40;1.33;;;20.00;99.90;;;;;;4990449;28;20372;-63
2021/09/16 12:33:37;;;;;;;5.37;1.50;;;19.90;99.90;;;;;;4984311;28;20731;-63
2021/09/16 12:36:14;;;;;;;4.57;1.70;;;19.90;99.90;;;;;;4993705;28;20714;-63
2021/09/16 12:38:45;;;;;;;7.13;1.63;;;19.90;99.90;;;;;;4977845;28;20267;-63
2021/09/16 12:41:24;;;;;;;4.07;1.60;;;19.60;99.90;;;;;;4990443;28;20675;-63
2021/09/16 12:44:02;;;;;;;4.37;1.50;;;19.00;99.90;;;;;;4985557;28;20268;-64
2021/09/16 12:46:40;;;;;;;6.17;1.90;;;18.90;99.90;;;;;;4991212;28;20317;-63
2021/09/16 12:49:08;;;;;;;8.37;1.57;;;18.80;99.90;;;;;;4989139;28;20756;-63
2021/09/16 12:51:36;;;;;;;4.20;1.70;;;18.80;99.90;;;;;;4996402;28;20244;-63
2021/09/16 12:54:04;;;;;;;4.40;1.60;;;18.80;99.90;;;;;;4989619;28;20289;-63
2021/09/16 12:56:32;;;;;;;4.33;1.63;;;18.90;99.90;;;;;;4993923;28;20327;-63
2021/09/16 12:59:17;;;;;;;6.03;1.90;;;19.00;99.90;;;;;;4989351;28;20244;-64
2021/09/16 13:01:47;;;;;;;6.20;1.70;;;19.20;99.90;;;;;;5003948;28;20713;-64